Nearby METAR Reports

 

KICL - Clarinda, Iowa, USA
Distance from station: N 49mi, 79km
Updated: Sun, 21-Jul-2019 8:35pm CDT
Partly cloudy
Partly cloudy
 Wind from NNE
Wind: NNE 9 mph , 15 km/h
Temperature: 72°F , 22°C
Dew Point: 70°F , 21°C
Humidity: 94%
Barometer: 30.08 inHg , 1018.6 hPa
Clouds: Partly cloudy
Visibility: 10 miles , 16 km
Cloud details: Partly cloudy 2700 ft
Partly cloudy 3400 ft
Partly cloudy 4300 ft
2019/07/22 01:35 KICL 220135Z AUTO 02008KT 10SM SCT027 SCT034 SCT043 22/21 A3008 RMK AO2
KDSM - Des Moines, Iowa, USA
Distance from station: NNE 122mi, 196km
Updated: Sun, 21-Jul-2019 7:54pm CDT
Overcast
Overcast
 Wind from N
Wind: N 5 mph , 7 km/h
Temperature: 73°F , 23°C
Dew Point: 64°F , 18°C
Humidity: 74%
Barometer: 30.05 inHg , 1017.6 hPa
Clouds: Overcast
Visibility: 10 miles , 16 km
Cloud details: Few Clouds 4800 ft
Mostly cloudy 10000 ft
Mostly cloudy 12000 ft
Overcast 20000 ft
2019/07/22 00:54 KDSM 220054Z 35004KT 10SM FEW048 BKN100 BKN120 OVC200 23/18 A3005 RMK AO2 RAE36 SLP170 P0000 T02330178 $
KFNB - Falls City, Nebraska, USA
Distance from station: W 50mi, 80km
Updated: Sun, 21-Jul-2019 7:53pm CDT
Overcast
Overcast
 
Temperature: 73°F , 23°C
Dew Point: 72°F , 22°C
Humidity: 94%
Barometer: 30.03 inHg , 1016.9 hPa
Clouds: Overcast
Visibility: 10 miles , 16 km
Cloud details: Partly cloudy 2300 ft
Mostly cloudy 3000 ft
Overcast 9000 ft
2019/07/22 00:53 KFNB 220053Z AUTO 10SM SCT023 BKN030 OVC090 23/22 A3003 RMK AO2 RAE50 SLP162 P0001 T02280217
 
KMCI - Kansas City, Missouri, USA
Distance from station: S 65mi, 104km
Updated: Sun, 21-Jul-2019 8:26pm CDT
Heavy rain, Mist, Overcast
Heavy rain, Mist, Overcast
 Wind from N
Wind: N 17 mph , 28 km/h
Temperature: 73°F , 23°C
Dew Point: 72°F , 22°C
Humidity: 94%
Barometer: 29.98 inHg , 1015.2 hPa
Summary: Heavy rain, Mist
Clouds: Overcast
Visibility: 2 miles , 3 km
Cloud details: Few Clouds 600 ft
Mostly cloudy 3100 ft
Overcast 6000 ft
2019/07/22 01:26 KMCI 220126Z 01015KT 2SM +RA BR FEW006 BKN031 OVC060 23/22 A2998 RMK AO2 SFC VIS 3 LTG DSNT S RAB0056 P0013 T02280222
KOMA - Omaha, Nebraska, USA
Distance from station: NNW 105mi, 169km
Updated: Sun, 21-Jul-2019 7:52pm CDT
Mostly cloudy
Mostly cloudy
 Wind from NNE
Wind: NNE 13 mph , 20 km/h
Temperature: 73°F , 23°C
Dew Point: 64°F , 18°C
Humidity: 74%
Barometer: 30.08 inHg , 1018.6 hPa
Clouds: Mostly cloudy
Visibility: 10 miles , 16 km
Cloud details: Few Clouds 2700 ft
Partly cloudy 10000 ft
Mostly cloudy 14000 ft
2019/07/22 00:52 KOMA 220052Z 02011KT 10SM FEW027 SCT100 BKN140 23/18 A3008 RMK AO2 SLP179 T02330183 $
KRDK - Red Oak, Iowa, USA
Distance from station: N 70mi, 112km
Updated: Sun, 21-Jul-2019 8:35pm CDT
Mostly cloudy
Mostly cloudy
 Wind from NNE
Wind: NNE 10 mph , 17 km/h
Temperature: 72°F , 22°C
Dew Point: 66°F , 19°C
Humidity: 83%
Barometer: 30.08 inHg , 1018.6 hPa
Clouds: Mostly cloudy
Visibility: 10 miles , 16 km
Cloud details: Partly cloudy 19000 ft
Mostly cloudy 21000 ft
2019/07/22 01:35 KRDK 220135Z AUTO 02009KT 10SM SCT190 BKN210 22/19 A3008 RMK AO2
 
KSTJ - Saint Joseph, Missouri, USA
Distance from station: SW 23mi, 37km
Updated: Sun, 21-Jul-2019 8:32pm CDT
Light rain, Mist, Overcast
Light rain, Mist, Overcast
 Wind from NE
Wind: NE 15 mph , 24 km/h
Temperature: 72°F , 22°C
Dew Point: 70°F , 21°C
Humidity: 94%
Barometer: 30.03 inHg , 1016.9 hPa
Summary: Light rain, Mist
Clouds: Overcast
Visibility: 3 miles , 5 km
Cloud details: Partly cloudy 1100 ft
Mostly cloudy 3400 ft
Overcast 9500 ft
2019/07/22 01:32 KSTJ 220132Z AUTO 04013KT 3SM -RA BR SCT011 BKN034 OVC095 22/21 A3003 RMK AO2 T02220206 PNO $
KTOP - Topeka, Kansas, USA
Distance from station: SW 85mi, 137km
Updated: Sun, 21-Jul-2019 8:40pm CDT
Light rain, Overcast
Light rain, Overcast
 Wind from N
Wind: N 17 mph , 28 km/h, Gust: 29 mph , 46 km/h
Temperature: 72°F , 22°C
Dew Point: 72°F , 22°C
Humidity: 100%
Barometer: 29.99 inHg , 1015.6 hPa
Summary: Light rain
Clouds: Overcast
Visibility: 9 miles , 14 km
Cloud details: Partly cloudy 800 ft
Mostly cloudy 3000 ft
Overcast 5000 ft
2019/07/22 01:40 KTOP 220140Z AUTO 01015G25KT 9SM -RA SCT008 BKN030 OVC050 22/22 A2999 RMK AO2 PK WND 36027/0124 TSE15 P0037 T02220217 $
KICT - Wichita, Kansas, USA
Distance from station: SW 215mi, 346km
Updated: Sun, 21-Jul-2019 8:46pm CDT
Overcast
Overcast
 Wind from NE
Wind: NE 15 mph , 24 km/h
Temperature: 81°F , 27°C
Heat Index: 84°F , 29°C
Dew Point: 68°F , 20°C
Humidity: 66%
Barometer: 29.99 inHg , 1015.6 hPa
Clouds: Overcast
Visibility: 10 miles , 16 km
Cloud details: Mostly cloudy 2500 ft
Overcast 3000 ft
2019/07/22 01:46 KICT 220146Z 05013KT 10SM BKN025 OVC030 27/20 A2999 RMK AO2 LTG DSNT SE AND S TSE40 OCNL LTGICCC DSNT SE-SW CB DSNT SE-SW T02670200 $